Time;durP1;ratioP1;P1;durP2;ratioP2;P2;SDS_P1;SDS_P2;PMS_P1;PMS_P2;Temp;Humidity;BMP_temperature;BMP_pressure;BME280_temperature;BME280_humidity;BME280_pressure;Samples;Min_cycle;Max_cycle;Signal;HPM_P1;HPM_P2
2023/02/15 00:00:49;;;;;;;6.25;0.95;;;;;;;;;;4988482;28;20551;-63
2023/02/15 00:03:19;;;;;;;6.20;0.70;;;;;;;;;;5039692;28;20049;-63
2023/02/15 00:05:48;;;;;;;2.05;0.50;;;;;;;;;;5038306;28;20053;-64
2023/02/15 00:08:18;;;;;;;3.78;0.55;;;;;;;;;;4994719;28;20607;-63
2023/02/15 00:10:48;;;;;;;1.58;0.50;;;;;;;;;;5040168;28;20049;-64
2023/02/15 00:13:19;;;;;;;1.17;0.40;;;;;;;;;;5009711;28;20182;-63
2023/02/15 00:15:49;;;;;;;2.05;1.30;;;;;;;;;;5016974;28;20438;-63
2023/02/15 00:18:19;;;;;;;3.85;0.70;;;;;;;;;;5082324;28;20049;-64
2023/02/15 00:20:48;;;;;;;2.08;0.60;;;;;;;;;;5083690;28;20067;-64
2023/02/15 00:23:18;;;;;;;1.50;0.63;;;;;;;;;;5061659;28;20045;-64
2023/02/15 00:25:48;;;;;;;1.85;0.60;;;;;;;;;;5061816;28;20056;-63
2023/02/15 00:28:18;;;;;;;2.22;0.50;;;;;;;;;;5012119;28;20059;-65
2023/02/15 00:30:48;;;;;;;2.78;0.57;;;;;;;;;;5073405;28;20059;-63
2023/02/15 00:33:18;;;;;;;4.50;0.35;;;;;;;;;;5088546;28;20044;-65
2023/02/15 00:35:55;;;;;;;3.38;0.50;;;;;;;;;;5091639;28;20435;-66
2023/02/15 00:38:27;;;;;;;2.22;0.50;;;;;;;;;;5058489;28;20052;-66
2023/02/15 00:41:02;;;;;;;4.00;0.60;;;;;;;;;;5071599;28;20048;-63
2023/02/15 00:43:33;;;;;;;1.83;0.50;;;;;;;;;;5071639;28;20407;-65
2023/02/15 00:46:05;;;;;;;2.65;0.40;;;;;;;;;;5021746;28;20063;-64
2023/02/15 00:48:35;;;;;;;2.47;0.45;;;;;;;;;;5017836;28;20074;-64
2023/02/15 00:51:05;;;;;;;1.50;0.60;;;;;;;;;;5038009;28;20067;-64
2023/02/15 00:53:37;;;;;;;2.03;0.50;;;;;;;;;;5061281;28;20055;-64
2023/02/15 00:56:08;;;;;;;5.82;0.63;;;;;;;;;;5050935;28;20063;-63
2023/02/15 00:58:38;;;;;;;2.72;0.47;;;;;;;;;;5051389;28;20075;-63
2023/02/15 01:01:18;;;;;;;1.80;0.60;;;;;;;;;;5022197;28;20591;-64
2023/02/15 01:03:48;;;;;;;2.65;0.52;;;;;;;;;;5028612;28;20053;-67
2023/02/15 01:06:18;;;;;;;3.20;0.60;;;;;;;;;;4995960;28;20064;-63
2023/02/15 01:08:48;;;;;;;2.35;0.40;;;;;;;;;;5033204;28;20108;-62
2023/02/15 01:11:24;;;;;;;2.40;0.50;;;;;;;;;;5016346;28;20061;-64
2023/02/15 01:13:56;;;;;;;3.05;0.40;;;;;;;;;;5052496;28;20049;-64
2023/02/15 01:16:28;;;;;;;2.03;0.50;;;;;;;;;;5031337;28;20953;-66
2023/02/15 01:18:59;;;;;;;8.13;0.80;;;;;;;;;;5044096;28;20060;-66
2023/02/15 01:21:29;;;;;;;3.60;0.40;;;;;;;;;;5056436;28;20052;-65
2023/02/15 01:23:59;;;;;;;1.73;0.55;;;;;;;;;;5053204;28;20059;-64
2023/02/15 01:26:29;;;;;;;5.07;1.73;;;;;;;;;;5070523;28;20436;-64
2023/02/15 01:28:59;;;;;;;5.88;4.03;;;;;;;;;;5030241;28;20057;-63
2023/02/15 01:31:29;;;;;;;8.35;7.05;;;;;;;;;;5024581;28;20057;-64
2023/02/15 01:34:01;;;;;;;;;;;;;;;;;;4975510;28;20047;-65
2023/02/15 01:36:33;;;;;;;3.67;1.63;;;;;;;;;;4990437;28;20428;-65
2023/02/15 01:39:03;;;;;;;2.35;1.17;;;;;;;;;;4990994;28;20058;-64
2023/02/15 01:41:33;;;;;;;3.78;1.95;;;;;;;;;;4958537;28;20051;-64
2023/02/15 01:44:24;;;;;;;4.30;1.92;;;;;;;;;;4948606;29;20534;-65
2023/02/15 01:46:54;;;;;;;;;;;;;;;;;;4932924;29;20047;-66
2023/02/15 01:49:27;;;;;;;10.35;3.00;;;;;;;;;;4942532;29;19922;-65
2023/02/15 01:51:58;;;;;;;3.38;2.30;;;;;;;;;;4939322;29;20436;-67
2023/02/15 01:54:32;;;;;;;3.65;2.53;;;;;;;;;;4933264;29;20079;-64
2023/02/15 01:57:16;;;;;;;6.70;3.65;;;;;;;;;;4901676;29;20135;-63
2023/02/15 01:59:51;;;;;;;6.65;3.55;;;;;;;;;;4913751;29;20070;-64
2023/02/15 02:02:24;;;;;;;6.45;2.88;;;;;;;;;;4931492;29;20055;-64
2023/02/15 02:04:56;;;;;;;;;;;;;;;;;;4930921;29;20066;-65
2023/02/15 02:07:32;;;;;;;4.53;2.50;;;;;;;;;;4947081;28;19922;-65
2023/02/15 02:10:04;;;;;;;4.38;3.08;;;;;;;;;;4931537;29;20062;-66
2023/02/15 02:12:36;;;;;;;5.28;2.92;;;;;;;;;;4862768;29;20059;-63
2023/02/15 02:15:09;;;;;;;5.40;2.97;;;;;;;;;;4918202;29;20066;-64
2023/02/15 02:18:18;;;;;;;5.03;3.25;;;;;;;;;;4934450;29;20527;-64
2023/02/15 02:21:26;;;;;;;6.72;3.72;;;;;;;;;;4950520;29;20066;-65
2023/02/15 02:24:13;;;;;;;6.97;2.90;;;;;;;;;;4955435;28;20070;-65
2023/02/15 02:26:56;;;;;;;6.78;2.53;;;;;;;;;;4951312;29;20487;-65
2023/02/15 02:29:54;;;;;;;6.90;2.60;;;;;;;;;;4951185;29;20051;-64
2023/02/15 02:33:00;;;;;;;6.32;2.78;;;;;;;;;;4951243;28;20066;-64
2023/02/15 02:35:50;;;;;;;5.45;2.53;;;;;;;;;;4951070;29;20113;-64
2023/02/15 02:38:48;;;;;;;6.43;2.58;;;;;;;;;;4968226;28;20055;-64
2023/02/15 02:41:40;;;;;;;6.65;2.85;;;;;;;;;;4900102;29;20063;-62
2023/02/15 02:44:12;;;;;;;;;;;;;;;;;;4951685;29;20055;-64
2023/02/15 02:46:59;;;;;;;6.07;3.35;;;;;;;;;;4954888;28;19923;-64
2023/02/15 02:49:35;;;;;;;4.78;3.25;;;;;;;;;;4937987;28;20053;-64
2023/02/15 02:52:36;;;;;;;6.18;3.35;;;;;;;;;;4890764;28;20058;-65
2023/02/15 02:55:15;;;;;;;5.65;3.25;;;;;;;;;;4922504;28;20585;-65
2023/02/15 02:57:57;;;;;;;5.47;3.40;;;;;;;;;;4969934;28;20123;-65
2023/02/15 03:00:31;;;;;;;5.50;3.53;;;;;;;;;;4922406;28;20727;-65
2023/02/15 03:03:12;;;;;;;5.47;3.40;;;;;;;;;;4918750;29;20411;-65
2023/02/15 03:05:46;;;;;;;6.78;4.05;;;;;;;;;;4911525;29;20052;-65
2023/02/15 03:08:21;;;;;;;5.57;3.05;;;;;;;;;;4881080;29;20162;-65
2023/02/15 03:10:56;;;;;;;3.88;2.78;;;;;;;;;;4893557;29;20532;-65
2023/02/15 03:13:27;;;;;;;5.13;2.92;;;;;;;;;;4931329;29;20055;-65
2023/02/15 03:18:57;;;;;;;6.85;3.60;;;;;;;;;;4948012;28;20051;-64
2023/02/15 03:21:40;;;;;;;5.20;2.63;;;;;;;;;;4942074;28;20054;-62
2023/02/15 03:24:14;;;;;;;3.67;1.83;;;;;;;;;;4969779;28;20069;-66
2023/02/15 03:26:48;;;;;;;1.60;0.60;;;;;;;;;;4934120;29;20126;-67
2023/02/15 03:29:21;;;;;;;3.38;0.68;;;;;;;;;;4936454;28;20054;-72
2023/02/15 03:31:58;;;;;;;1.83;0.60;;;;;;;;;;4933988;29;20530;-65
2023/02/15 03:34:29;;;;;;;1.60;0.52;;;;;;;;;;4929318;29;20067;-65
2023/02/15 03:37:04;;;;;;;1.83;0.80;;;;;;;;;;4931505;29;20055;-62
2023/02/15 03:39:51;;;;;;;2.60;0.82;;;;;;;;;;4931309;29;20063;-62
2023/02/15 03:42:32;;;;;;;1.88;0.50;;;;;;;;;;4915258;29;20056;-62
2023/02/15 03:45:08;;;;;;;2.00;0.52;;;;;;;;;;4914320;29;20048;-61
2023/02/15 03:47:44;;;;;;;2.00;1.00;;;;;;;;;;4928638;29;20473;-62
2023/02/15 03:53:35;;;;;;;1.15;0.45;;;;;;;;;;4877331;29;20052;-61
2023/02/15 03:56:05;;;;;;;0.93;0.40;;;;;;;;;;4859620;29;20064;-65
2023/02/15 04:01:59;;;;;;;0.40;0.30;;;;;;;;;;4911584;28;20058;-64
2023/02/15 04:04:36;;;;;;;1.08;0.30;;;;;;;;;;5000540;28;20513;-61
2023/02/15 04:07:09;;;;;;;1.85;0.50;;;;;;;;;;5028158;28;20049;-65
2023/02/15 04:12:26;;;;;;;1.42;0.30;;;;;;;;;;5028189;28;20049;-64
2023/02/15 04:17:44;;;;;;;0.40;0.30;;;;;;;;;;4978741;28;20077;-62
2023/02/15 04:25:54;;;;;;;0.30;0.10;;;;;;;;;;5007990;28;20054;-63
2023/02/15 04:28:24;;;;;;;0.30;0.20;;;;;;;;;;5053595;28;20063;-63
2023/02/15 04:30:55;;;;;;;1.05;0.30;;;;;;;;;;5087971;28;20052;-63
2023/02/15 04:33:24;;;;;;;2.58;0.35;;;;;;;;;;5088044;28;20126;-63
2023/02/15 04:35:54;;;;;;;0.98;0.28;;;;;;;;;;5088080;28;20079;-62
2023/02/15 04:38:24;;;;;;;0.28;0.17;;;;;;;;;;5087798;28;20052;-63
2023/02/15 04:40:53;;;;;;;0.45;0.28;;;;;;;;;;5088011;28;20052;-63
2023/02/15 04:43:23;;;;;;;5.60;0.50;;;;;;;;;;5087851;28;20520;-64
2023/02/15 04:45:54;;;;;;;2.88;0.35;;;;;;;;;;5038295;28;20052;-63
2023/02/15 04:48:24;;;;;;;0.32;0.25;;;;;;;;;;5087645;28;20055;-62
2023/02/15 04:50:54;;;;;;;0.30;0.22;;;;;;;;;;5037627;28;20532;-61
2023/02/15 04:53:24;;;;;;;0.52;0.20;;;;;;;;;;5087929;28;20047;-62
2023/02/15 04:55:53;;;;;;;0.30;0.20;;;;;;;;;;5088493;28;20052;-62
2023/02/15 04:58:23;;;;;;;0.30;0.20;;;;;;;;;;5074748;28;20155;-62
2023/02/15 05:00:56;;;;;;;3.33;0.20;;;;;;;;;;5041316;28;20056;-62
2023/02/15 05:03:26;;;;;;;0.68;0.20;;;;;;;;;;5047552;28;20424;-62
2023/02/15 05:05:56;;;;;;;0.68;0.38;;;;;;;;;;5024874;28;20063;-65
2023/02/15 05:08:26;;;;;;;1.80;0.35;;;;;;;;;;5037266;28;20040;-63
2023/02/15 05:10:56;;;;;;;1.38;0.30;;;;;;;;;;5020577;28;20060;-64
2023/02/15 05:13:26;;;;;;;0.47;0.30;;;;;;;;;;5021177;28;20067;-67
2023/02/15 05:15:56;;;;;;;1.52;0.40;;;;;;;;;;5070835;28;20056;-64
2023/02/15 05:18:26;;;;;;;1.75;0.35;;;;;;;;;;5071136;28;20523;-65
2023/02/15 05:20:56;;;;;;;0.65;0.30;;;;;;;;;;5037555;28;20078;-62
2023/02/15 05:23:26;;;;;;;3.10;0.43;;;;;;;;;;5053673;28;20422;-61
2023/02/15 05:28:44;;;;;;;1.85;0.40;;;;;;;;;;5037286;28;20526;-64
2023/02/15 05:31:17;;;;;;;2.42;0.60;;;;;;;;;;5037465;28;20666;-62
2023/02/15 05:33:48;;;;;;;1.70;0.30;;;;;;;;;;5070503;28;20053;-61
2023/02/15 05:36:17;;;;;;;2.33;0.52;;;;;;;;;;5054568;28;20055;-64
2023/02/15 05:38:47;;;;;;;0.50;0.30;;;;;;;;;;5070540;28;20056;-61
2023/02/15 05:41:17;;;;;;;0.50;0.32;;;;;;;;;;5070535;28;20048;-63
2023/02/15 05:43:47;;;;;;;4.05;0.77;;;;;;;;;;5037224;28;20048;-61
2023/02/15 05:46:17;;;;;;;0.80;0.50;;;;;;;;;;5083305;28;20055;-62
2023/02/15 05:48:46;;;;;;;1.75;0.40;;;;;;;;;;5092639;28;20048;-67
2023/02/15 05:51:16;;;;;;;2.70;0.40;;;;;;;;;;5074122;28;20052;-61
2023/02/15 05:53:46;;;;;;;0.52;0.30;;;;;;;;;;5057300;28;20048;-61
2023/02/15 05:56:16;;;;;;;3.50;0.50;;;;;;;;;;5073630;28;20048;-61
2023/02/15 05:58:45;;;;;;;0.75;0.35;;;;;;;;;;5092978;28;20040;-68
2023/02/15 06:01:18;;;;;;;1.70;0.45;;;;;;;;;;5057009;28;20456;-61
2023/02/15 06:03:48;;;;;;;2.38;0.50;;;;;;;;;;5092966;28;20040;-63
2023/02/15 06:06:17;;;;;;;2.60;0.57;;;;;;;;;;5093157;28;20388;-61
2023/02/15 06:08:47;;;;;;;0.88;0.50;;;;;;;;;;5072253;28;20056;-62
2023/02/15 06:11:17;;;;;;;2.22;0.40;;;;;;;;;;5092878;28;20484;-62
2023/02/15 06:13:46;;;;;;;4.45;0.40;;;;;;;;;;5092800;28;20048;-61
2023/02/15 06:16:16;;;;;;;1.60;0.70;;;;;;;;;;5073358;28;20527;-61
2023/02/15 06:18:46;;;;;;;1.98;0.50;;;;;;;;;;5092629;28;20048;-66
2023/02/15 06:21:16;;;;;;;0.85;0.40;;;;;;;;;;5092544;28;20044;-67
2023/02/15 06:23:46;;;;;;;3.58;0.70;;;;;;;;;;5092285;28;20055;-62
2023/02/15 06:26:16;;;;;;;3.55;0.43;;;;;;;;;;5092407;28;20067;-63
2023/02/15 06:28:46;;;;;;;3.92;0.50;;;;;;;;;;5074671;28;20493;-71
2023/02/15 06:31:16;;;;;;;2.97;0.60;;;;;;;;;;5093512;28;20055;-62
2023/02/15 06:33:46;;;;;;;2.35;0.70;;;;;;;;;;5049232;28;20041;-62
2023/02/15 06:36:15;;;;;;;2.53;0.75;;;;;;;;;;5049524;28;20425;-65
2023/02/15 06:38:45;;;;;;;1.02;0.45;;;;;;;;;;5016197;28;20497;-63
2023/02/15 06:41:14;;;;;;;2.20;0.90;;;;;;;;;;5049307;28;20405;-61
2023/02/15 06:43:44;;;;;;;8.63;0.70;;;;;;;;;;5016549;28;20076;-67
2023/02/15 06:46:14;;;;;;;1.02;0.65;;;;;;;;;;5016039;28;20049;-65
2023/02/15 06:48:44;;;;;;;1.85;0.65;;;;;;;;;;5048666;28;20057;-61
2023/02/15 06:51:14;;;;;;;1.95;0.80;;;;;;;;;;5049301;28;20068;-63
2023/02/15 06:53:43;;;;;;;4.38;1.25;;;;;;;;;;5049275;28;20056;-63
2023/02/15 06:56:13;;;;;;;3.75;1.00;;;;;;;;;;5033040;28;20409;-62
2023/02/15 06:58:45;;;;;;;4.43;0.93;;;;;;;;;;5049036;28;20184;-62
2023/02/15 07:01:15;;;;;;;;;;;;;;;;;;5016883;28;20200;-64
2023/02/15 07:03:45;;;;;;;3.30;0.70;;;;;;;;;;5048831;28;19925;-61
2023/02/15 07:06:15;;;;;;;1.92;0.80;;;;;;;;;;5048982;28;20578;-64
2023/02/15 07:08:44;;;;;;;2.70;0.88;;;;;;;;;;5048712;28;20116;-67
2023/02/15 07:14:02;;;;;;;2.38;1.00;;;;;;;;;;5076045;28;20553;-61
2023/02/15 07:16:32;;;;;;;6.55;1.10;;;;;;;;;;5058425;28;20059;-62
2023/02/15 07:19:01;;;;;;;3.22;1.33;;;;;;;;;;5111574;28;20047;-64
2023/02/15 07:21:31;;;;;;;3.53;1.17;;;;;;;;;;5112164;28;20050;-61
2023/02/15 07:24:01;;;;;;;2.50;1.10;;;;;;;;;;5075685;28;20066;-61
2023/02/15 07:26:34;;;;;;;2.70;1.00;;;;;;;;;;5058943;28;20055;-61
2023/02/15 07:29:04;;;;;;;4.72;0.80;;;;;;;;;;5093612;28;20051;-62
2023/02/15 07:31:34;;;;;;;3.60;1.10;;;;;;;;;;5111909;28;20043;-63
2023/02/15 07:34:05;;;;;;;1.73;1.02;;;;;;;;;;5075629;28;20058;-61
2023/02/15 07:36:37;;;;;;;5.50;0.98;;;;;;;;;;5077636;28;20063;-64
2023/02/15 07:39:06;;;;;;;2.45;0.93;;;;;;;;;;5075200;28;20047;-62
2023/02/15 07:41:36;;;;;;;2.40;1.17;;;;;;;;;;5111460;28;20046;-61
2023/02/15 07:44:13;;;;;;;2.90;1.20;;;;;;;;;;5052333;28;20048;-62
2023/02/15 07:46:43;;;;;;;4.10;1.20;;;;;;;;;;5018912;28;20059;-63
2023/02/15 07:49:15;;;;;;;3.63;1.88;;;;;;;;;;5067665;28;20393;-64
2023/02/15 07:51:45;;;;;;;2.10;1.00;;;;;;;;;;5068574;28;20048;-64
2023/02/15 07:54:15;;;;;;;7.18;1.52;;;;;;;;;;5051607;28;20071;-62
2023/02/15 07:56:45;;;;;;;7.55;1.20;;;;;;;;;;5068446;28;20088;-62
2023/02/15 07:59:15;;;;;;;1.92;1.00;;;;;;;;;;5051855;28;20447;-59
2023/02/15 08:01:45;;;;;;;4.22;0.90;;;;;;;;;;5030149;28;20045;-60
2023/02/15 08:04:14;;;;;;;4.93;1.58;;;;;;;;;;5047922;28;20063;-65
2023/02/15 08:06:44;;;;;;;4.38;1.20;;;;;;;;;;5048258;28;20053;-66
2023/02/15 08:09:14;;;;;;;3.08;1.38;;;;;;;;;;4997992;28;20049;-59
2023/02/15 08:11:44;;;;;;;4.00;1.10;;;;;;;;;;5014982;28;20056;-61
2023/02/15 08:14:17;;;;;;;2.20;1.05;;;;;;;;;;5048610;28;20065;-62
2023/02/15 08:16:55;;;;;;;2.85;1.20;;;;;;;;;;5068099;28;20064;-60
2023/02/15 08:19:28;;;;;;;5.30;1.10;;;;;;;;;;5018905;28;20547;-60
2023/02/15 08:22:03;;;;;;;2.80;1.17;;;;;;;;;;5034508;28;20045;-62
2023/02/15 08:24:36;;;;;;;2.65;1.20;;;;;;;;;;5067855;28;20044;-64
2023/02/15 08:27:08;;;;;;;4.65;1.38;;;;;;;;;;5002446;28;20052;-60
2023/02/15 08:29:39;;;;;;;4.75;1.23;;;;;;;;;;5027495;28;20055;-61
2023/02/15 08:32:12;;;;;;;7.60;1.70;;;;;;;;;;5010362;28;20499;-60
2023/02/15 08:34:42;;;;;;;3.08;1.00;;;;;;;;;;4995607;28;20065;-61
2023/02/15 08:37:12;;;;;;;1.60;1.00;;;;;;;;;;4963697;28;20065;-60
2023/02/15 08:39:43;;;;;;;2.35;0.82;;;;;;;;;;5008104;28;20056;-60
2023/02/15 08:42:13;;;;;;;3.10;1.02;;;;;;;;;;4998348;28;20049;-60
2023/02/15 08:44:43;;;;;;;3.83;1.08;;;;;;;;;;5032008;28;20387;-59
2023/02/15 08:47:13;;;;;;;4.05;0.90;;;;;;;;;;5031518;28;20405;-60
2023/02/15 08:49:43;;;;;;;1.73;0.73;;;;;;;;;;5011009;28;20052;-60
2023/02/15 08:52:13;;;;;;;3.72;1.00;;;;;;;;;;4972547;28;20055;-64
2023/02/15 08:54:42;;;;;;;3.80;1.25;;;;;;;;;;4956668;28;20523;-61
2023/02/15 08:57:12;;;;;;;2.72;1.73;;;;;;;;;;4940633;28;20415;-60
2023/02/15 08:59:42;;;;;;;2.38;1.00;;;;;;;;;;4972522;28;20058;-61
2023/02/15 09:02:11;;;;;;;1.90;0.80;;;;;;;;;;4972625;28;20055;-63
2023/02/15 09:04:41;;;;;;;2.53;0.82;;;;;;;;;;4972459;28;20062;-59
2023/02/15 09:07:11;;;;;;;5.40;1.50;;;;;;;;;;4948884;28;20548;-61
2023/02/15 09:09:41;;;;;;;3.45;1.10;;;;;;;;;;5009540;28;20448;-61
2023/02/15 09:12:12;;;;;;;3.00;1.35;;;;;;;;;;5031327;28;20542;-61
2023/02/15 09:14:41;;;;;;;2.30;1.00;;;;;;;;;;5047095;28;20084;-65
2023/02/15 09:17:11;;;;;;;2.92;1.10;;;;;;;;;;5014627;28;20068;-62
2023/02/15 09:19:43;;;;;;;4.32;1.35;;;;;;;;;;5015141;28;20054;-64
2023/02/15 09:22:13;;;;;;;2.05;1.10;;;;;;;;;;5021222;28;20060;-66
2023/02/15 09:24:43;;;;;;;3.75;1.30;;;;;;;;;;5030775;28;20061;-62
2023/02/15 09:27:13;;;;;;;5.05;1.27;;;;;;;;;;5030897;28;20058;-61
2023/02/15 09:29:44;;;;;;;2.40;1.40;;;;;;;;;;5039286;28;20053;-62
2023/02/15 09:32:17;;;;;;;3.45;1.00;;;;;;;;;;5050838;28;20129;-64
2023/02/15 09:34:47;;;;;;;2.28;1.20;;;;;;;;;;5034098;28;20048;-62
2023/02/15 09:37:17;;;;;;;4.47;1.60;;;;;;;;;;5010764;28;20050;-61
2023/02/15 09:39:47;;;;;;;3.47;1.42;;;;;;;;;;5010347;28;20069;-62
2023/02/15 09:42:27;;;;;;;3.03;1.77;;;;;;;;;;5010292;28;20058;-62
2023/02/15 09:45:16;;;;;;;3.03;1.80;;;;;;;;;;4977912;28;20062;-62
2023/02/15 09:48:12;;;;;;;2.33;1.67;;;;;;;;;;4961949;28;20061;-64
2023/02/15 09:51:03;;;;;;;4.68;3.03;;;;;;;;;;5010730;28;20514;-61
2023/02/15 09:53:51;;;;;;;4.47;2.70;;;;;;;;;;5010499;28;20049;-63
2023/02/15 09:56:29;;;;;;;8.63;3.30;;;;;;;;;;4977850;28;20053;-67
2023/02/15 10:00:00;;;;;;;7.10;4.00;;;;;;;;;;4977911;28;20057;-63
2023/02/15 10:03:11;;;;;;;8.15;4.35;;;;;;;;;;5007205;28;20429;-62
2023/02/15 10:05:51;;;;;;;12.13;3.95;;;;;;;;;;4981024;28;20060;-65
2023/02/15 10:08:50;;;;;;;9.10;4.82;;;;;;;;;;5029889;28;20484;-63
2023/02/15 10:11:39;;;;;;;8.00;4.38;;;;;;;;;;4981140;28;20529;-65
2023/02/15 10:14:38;;;;;;;10.07;5.15;;;;;;;;;;5030075;28;20079;-62
2023/02/15 10:17:25;;;;;;;7.57;4.40;;;;;;;;;;5029958;28;20056;-62
2023/02/15 10:19:57;;;;;;;10.95;5.97;;;;;;;;;;4980754;28;20649;-62
2023/02/15 10:22:48;;;;;;;14.05;5.05;;;;;;;;;;5029880;28;20056;-62
2023/02/15 10:25:23;;;;;;;11.30;4.82;;;;;;;;;;4974073;28;20134;-64
2023/02/15 10:27:54;;;;;;;11.98;6.05;;;;;;;;;;4990423;28;20070;-61
2023/02/15 10:30:32;;;;;;;13.20;6.38;;;;;;;;;;4973819;28;20088;-62
2023/02/15 10:33:11;;;;;;;13.85;7.70;;;;;;;;;;4942168;28;20047;-66
2023/02/15 10:36:09;;;;;;;15.77;8.45;;;;;;;;;;4942033;28;20050;-63
2023/02/15 10:38:49;;;;;;;12.90;7.70;;;;;;;;;;5000893;28;20073;-61
2023/02/15 10:41:48;;;;;;;16.08;8.73;;;;;;;;;;5009742;28;20050;-61
2023/02/15 10:44:49;;;;;;;16.15;9.10;;;;;;;;;;4957376;28;20046;-65
2023/02/15 10:47:43;;;;;;;18.25;9.52;;;;;;;;;;4989854;28;20062;-61
2023/02/15 10:50:17;;;;;;;15.13;7.55;;;;;;;;;;4989821;28;20074;-62
2023/02/15 10:52:59;;;;;;;11.25;6.70;;;;;;;;;;4989824;28;20061;-65
2023/02/15 10:55:32;;;;;;;9.20;5.43;;;;;;;;;;4957040;28;20057;-65
2023/02/15 10:58:08;;;;;;;;;;;;;;;;;;4990319;28;20395;-61
2023/02/15 11:00:47;;;;;;;8.75;5.32;;;;;;;;;;4989610;28;20305;-62
2023/02/15 11:03:44;;;;;;;8.70;5.28;;;;;;;;;;5001082;28;20053;-63
2023/02/15 11:06:21;;;;;;;8.35;4.82;;;;;;;;;;5009120;28;20437;-62
2023/02/15 11:09:01;;;;;;;7.88;4.07;;;;;;;;;;5008544;28;20061;-64
2023/02/15 11:11:40;;;;;;;6.10;3.50;;;;;;;;;;5008834;28;20054;-62
2023/02/15 11:14:37;;;;;;;9.40;4.05;;;;;;;;;;5009031;28;20065;-62
2023/02/15 11:17:12;;;;;;;;;;;;;;;;;;4972759;28;20057;-65
2023/02/15 11:20:08;;;;;;;8.50;4.63;;;;;;;;;;4970237;28;19922;-62
2023/02/15 11:22:39;;;;;;;8.65;4.50;;;;;;;;;;5029030;28;20061;-63
2023/02/15 11:25:20;;;;;;;7.90;4.20;;;;;;;;;;4995935;28;20509;-64
2023/02/15 11:27:51;;;;;;;9.98;5.15;;;;;;;;;;4964116;28;20075;-63
2023/02/15 11:30:24;;;;;;;11.55;6.28;;;;;;;;;;5035771;28;20064;-61
2023/02/15 11:32:58;;;;;;;17.52;7.43;;;;;;;;;;4999003;28;20060;-61
2023/02/15 11:35:41;;;;;;;15.85;7.85;;;;;;;;;;5048092;28;20049;-62
2023/02/15 11:38:43;;;;;;;17.48;8.48;;;;;;;;;;5048167;28;20056;-63
2023/02/15 11:41:19;;;;;;;18.95;8.45;;;;;;;;;;4993856;28;20641;-63
2023/02/15 11:43:56;;;;;;;17.92;8.98;;;;;;;;;;5031871;28;20049;-62
2023/02/15 11:46:26;;;;;;;16.52;8.77;;;;;;;;;;5048134;28;20057;-63
2023/02/15 11:48:55;;;;;;;17.90;10.32;;;;;;;;;;4996162;28;20576;-63
2023/02/15 11:51:28;;;;;;;14.88;8.20;;;;;;;;;;5015404;28;20429;-62
2023/02/15 11:54:03;;;;;;;16.65;8.30;;;;;;;;;;5048107;28;20049;-62
2023/02/15 11:56:35;;;;;;;15.23;8.50;;;;;;;;;;5048492;28;20057;-61
2023/02/15 11:59:10;;;;;;;19.33;10.15;;;;;;;;;;5048361;28;20083;-64
2023/02/15 12:01:44;;;;;;;17.52;9.18;;;;;;;;;;5048102;28;20418;-64
2023/02/15 12:04:19;;;;;;;18.98;9.77;;;;;;;;;;5031915;28;20052;-63
2023/02/15 12:07:22;;;;;;;17.67;9.68;;;;;;;;;;5030838;28;20079;-63
2023/02/15 12:10:13;;;;;;;18.20;9.23;;;;;;;;;;5030616;28;20045;-62
2023/02/15 12:12:43;;;;;;;11.20;6.53;;;;;;;;;;4998982;28;20064;-64
2023/02/15 12:15:14;;;;;;;10.05;5.10;;;;;;;;;;5047541;28;20055;-63
2023/02/15 12:17:56;;;;;;;11.48;5.60;;;;;;;;;;5040934;28;20061;-62
2023/02/15 12:20:32;;;;;;;10.45;6.65;;;;;;;;;;4979430;28;20072;-64
2023/02/15 12:23:12;;;;;;;10.07;5.72;;;;;;;;;;5027705;28;20060;-62
2023/02/15 12:25:52;;;;;;;11.15;6.50;;;;;;;;;;5028181;28;20049;-62
2023/02/15 12:28:31;;;;;;;13.25;6.63;;;;;;;;;;4995657;28;20497;-64
2023/02/15 12:31:04;;;;;;;13.68;6.93;;;;;;;;;;5027940;28;20568;-63
2023/02/15 12:33:45;;;;;;;14.18;6.95;;;;;;;;;;5028183;28;20529;-65
2023/02/15 12:36:57;;;;;;;13.32;6.22;;;;;;;;;;5028267;28;20046;-62
2023/02/15 12:39:29;;;;;;;7.25;4.32;;;;;;;;;;4995122;28;20816;-61
2023/02/15 12:42:03;;;;;;;7.90;4.65;;;;;;;;;;5012070;28;20049;-63
2023/02/15 12:44:37;;;;;;;7.22;4.30;;;;;;;;;;4995186;28;20064;-61
2023/02/15 12:47:19;;;;;;;10.23;4.40;;;;;;;;;;5022012;28;20056;-62
2023/02/15 12:50:16;;;;;;;7.05;4.13;;;;;;;;;;5051205;28;20544;-62
2023/02/15 12:52:50;;;;;;;7.22;3.80;;;;;;;;;;5067814;28;20044;-63
2023/02/15 12:55:22;;;;;;;;;;;;;;;;;;5035597;28;20068;-62
2023/02/15 12:58:22;;;;;;;6.43;4.05;;;;;;;;;;5018343;28;20370;-63
2023/02/15 13:01:13;;;;;;;7.20;4.15;;;;;;;;;;5002513;28;20056;-62
2023/02/15 13:04:28;;;;;;;6.78;4.05;;;;;;;;;;5067747;28;20431;-62
2023/02/15 13:07:02;;;;;;;7.00;4.55;;;;;;;;;;5007732;28;20469;-61
2023/02/15 13:09:32;;;;;;;7.47;4.70;;;;;;;;;;5008127;28;20046;-62
2023/02/15 13:12:23;;;;;;;6.82;4.22;;;;;;;;;;5007842;28;20062;-64
2023/02/15 13:14:55;;;;;;;7.30;4.57;;;;;;;;;;5007935;28;20049;-62
2023/02/15 13:17:30;;;;;;;6.50;4.20;;;;;;;;;;5008982;28;20053;-63
2023/02/15 13:20:18;;;;;;;6.68;3.17;;;;;;;;;;4994885;28;20129;-63
2023/02/15 13:22:50;;;;;;;6.90;3.17;;;;;;;;;;4995581;28;20101;-62
2023/02/15 13:25:27;;;;;;;8.20;4.38;;;;;;;;;;5011092;28;20050;-63
2023/02/15 13:28:01;;;;;;;5.38;3.05;;;;;;;;;;4995525;28;20065;-63
2023/02/15 13:30:42;;;;;;;5.82;2.72;;;;;;;;;;5010703;28;20064;-63
2023/02/15 13:33:27;;;;;;;3.95;2.60;;;;;;;;;;4924564;28;20054;-62
2023/02/15 13:36:03;;;;;;;4.85;2.78;;;;;;;;;;4952283;29;20517;-62
2023/02/15 13:39:05;;;;;;;9.38;3.20;;;;;;;;;;4952808;29;20051;-63
2023/02/15 13:41:58;;;;;;;11.57;6.07;;;;;;;;;;4901600;29;20068;-63
2023/02/15 13:45:20;;;;;;;4.53;3.00;;;;;;;;;;4868935;29;20064;-63
2023/02/15 13:47:57;;;;;;;5.10;3.65;;;;;;;;;;4882662;29;20387;-64
2023/02/15 13:50:48;;;;;;;8.57;3.75;;;;;;;;;;4874241;29;20067;-65
2023/02/15 13:53:36;;;;;;;;;;;;;;;;;;4864299;29;20133;-62
2023/02/15 13:56:36;;;;;;;4.90;3.22;;;;;;;;;;4880114;29;19930;-62
2023/02/15 13:59:47;;;;;;;3.78;2.33;;;;;;;;;;4894947;29;20077;-62
2023/02/15 14:02:44;;;;;;;5.32;2.38;;;;;;;;;;4876199;29;20053;-63
2023/02/15 14:05:26;;;;;;;3.80;2.38;;;;;;;;;;4876447;29;20534;-63
2023/02/15 14:08:29;;;;;;;6.15;3.10;;;;;;;;;;4891685;29;20524;-63
2023/02/15 14:11:07;;;;;;;7.50;3.65;;;;;;;;;;4897829;29;20074;-63
2023/02/15 14:13:55;;;;;;;4.82;2.50;;;;;;;;;;4900558;29;20059;-63
2023/02/15 14:16:33;;;;;;;7.57;2.20;;;;;;;;;;4914050;29;20095;-63
2023/02/15 14:19:24;;;;;;;4.10;2.25;;;;;;;;;;4935912;28;21090;-64
2023/02/15 14:22:02;;;;;;;4.47;2.70;;;;;;;;;;4935669;28;20460;-64
2023/02/15 14:25:01;;;;;;;4.85;1.98;;;;;;;;;;5003678;28;20057;-63
2023/02/15 14:28:08;;;;;;;4.63;2.55;;;;;;;;;;4993448;28;20507;-63
2023/02/15 14:30:41;;;;;;;3.20;1.83;;;;;;;;;;5003800;28;20050;-64
2023/02/15 14:33:42;;;;;;;2.70;1.80;;;;;;;;;;4977508;28;20058;-64
2023/02/15 14:36:19;;;;;;;3.40;2.05;;;;;;;;;;5010257;28;20788;-62
2023/02/15 14:38:54;;;;;;;4.78;1.90;;;;;;;;;;5009982;28;20066;-62
2023/02/15 14:41:48;;;;;;;3.97;1.95;;;;;;;;;;5009923;28;20057;-64
2023/02/15 14:44:37;;;;;;;3.08;1.73;;;;;;;;;;4993131;28;20061;-64
2023/02/15 14:47:30;;;;;;;3.10;1.85;;;;;;;;;;5009575;28;20049;-63
2023/02/15 14:50:19;;;;;;;4.50;2.10;;;;;;;;;;4993309;28;20053;-64
2023/02/15 14:53:23;;;;;;;3.80;1.92;;;;;;;;;;5009583;28;20080;-64
2023/02/15 14:56:18;;;;;;;4.03;1.92;;;;;;;;;;5026066;28;20055;-63
2023/02/15 14:58:59;;;;;;;5.00;1.90;;;;;;;;;;4973287;28;20160;-63
2023/02/15 15:01:32;;;;;;;2.53;1.60;;;;;;;;;;4973247;28;20050;-63
2023/02/15 15:04:11;;;;;;;8.75;1.80;;;;;;;;;;4989859;28;20050;-64
2023/02/15 15:06:43;;;;;;;4.82;1.88;;;;;;;;;;4973263;28;20054;-63
2023/02/15 15:09:20;;;;;;;;;;;;;;;;;;4990474;28;20506;-63
2023/02/15 15:11:54;;;;;;;3.55;1.90;;;;;;;;;;4973841;28;19929;-63
2023/02/15 15:14:33;;;;;;;3.10;2.20;;;;;;;;;;4894350;28;20713;-63
2023/02/15 15:17:05;;;;;;;3.33;1.80;;;;;;;;;;4989594;28;20213;-64
2023/02/15 15:19:46;;;;;;;4.80;2.00;;;;;;;;;;4950573;29;20130;-63
2023/02/15 15:22:23;;;;;;;4.03;1.63;;;;;;;;;;4934478;29;20055;-63
2023/02/15 15:24:58;;;;;;;4.00;1.60;;;;;;;;;;4950619;29;20055;-63
2023/02/15 15:27:48;;;;;;;2.13;1.27;;;;;;;;;;4950822;29;20523;-62
2023/02/15 15:30:18;;;;;;;3.95;1.77;;;;;;;;;;4950153;29;20063;-63
2023/02/15 15:32:56;;;;;;;7.47;2.05;;;;;;;;;;4950599;29;20376;-62
2023/02/15 15:36:03;;;;;;;3.97;1.55;;;;;;;;;;4973014;28;20033;-63
2023/02/15 15:38:46;;;;;;;3.20;1.60;;;;;;;;;;5048176;28;20076;-63
2023/02/15 15:41:28;;;;;;;5.32;1.50;;;;;;;;;;5048522;28;20049;-63
2023/02/15 15:44:48;;;;;;;5.53;1.85;;;;;;;;;;5048172;28;20413;-63
2023/02/15 15:47:30;;;;;;;1.92;1.30;;;;;;;;;;4998479;28;20064;-63
2023/02/15 15:50:01;;;;;;;4.32;1.83;;;;;;;;;;5048194;28;20453;-63
2023/02/15 15:52:38;;;;;;;3.20;1.23;;;;;;;;;;5015628;28;20473;-63
2023/02/15 15:55:19;;;;;;;2.22;1.27;;;;;;;;;;5048336;28;20056;-63
2023/02/15 15:57:53;;;;;;;3.08;1.73;;;;;;;;;;5080866;28;20411;-64
2023/02/15 16:00:23;;;;;;;1.77;0.90;;;;;;;;;;5091152;28;20055;-64
2023/02/15 16:02:55;;;;;;;2.40;0.82;;;;;;;;;;5090760;28;20052;-64
2023/02/15 16:05:25;;;;;;;2.45;0.90;;;;;;;;;;5090961;28;20048;-63
2023/02/15 16:07:55;;;;;;;2.28;0.80;;;;;;;;;;5038604;28;20048;-64